This is the latest recevied weather packets stored in our database for station/object KD8YBJ. If no packets are shown the sender has not sent any weather packets the latest 10 day(s).
| Time | Temp. | Humidity | Pressure | Rain* | Wind** | Luminosity | Snow |
|---|---|---|---|---|---|---|---|
| 1777923616 | 20.56° C | 51% | 999 hPa | 0 mm | - | 518 W/m² | - |
| 1777922417 | 20.56° C | 51% | 999 hPa | 0 mm | - | 649 W/m² | - |
| 1777920617 | 20° C | 50% | 999.5 hPa | 0 mm | - | 514 W/m² | - |
| 1777919418 | 19.44° C | 50% | 999.5 hPa | 0 mm | - | 791 W/m² | - |
| 1777904417 | 13.33° C | 68% | 1002 hPa | 0 mm | - | 118 W/m² | - |
| 1777900817 | 11.67° C | 74% | 1002.7 hPa | 0 mm | - | 80 W/m² | - |
| 1777896015 | 10.56° C | 78% | 1002.9 hPa | 0 mm | - | 29 W/m² | - |
| 1777891237 | 9.44° C | 82% | 1002.3 hPa | 0 mm | - | 2 W/m² | - |
| 1777887618 | 9.44° C | 81% | 1002.7 hPa | 0 mm | - | 0 W/m² | - |
| 1777885820 | 10.56° C | 78% | 1002.8 hPa | 0 mm | - | 0 W/m² | - |
| 1777884615 | 10.56° C | 76% | 1002.9 hPa | 0 mm | - | 0 W/m² | - |
| 1777879837 | 12.22° C | 71% | 1003.2 hPa | 0 mm | - | 0 W/m² | - |
| 1777879217 | 12.78° C | 71% | 1003.3 hPa | 0 mm | - | 0 W/m² | - |
| 1777878017 | 12.78° C | 70% | 1003.4 hPa | 0 mm | - | 0 W/m² | - |
| 1777870836 | 13.33° C | 66% | 1004.2 hPa | 0 mm | - | 0 W/m² | - |
| 1777869017 | 13.33° C | 66% | 1004.4 hPa | 0 mm | - | 0 W/m² | - |
| 1777866619 | 12.22° C | 68% | 1005.1 hPa | 0 mm | - | 0 W/m² | - |
| 1777865418 | 12.22° C | 69% | 1005.2 hPa | 0 mm | - | 0 W/m² | - |
| 1777864219 | 12.78° C | 68% | 1005.2 hPa | 0 mm | - | 0 W/m² | - |
| 1777863618 | 12.78° C | 67% | 1005.1 hPa | 0 mm | - | 0 W/m² | - |
| 1777862419 | 12.78° C | 66% | 1005.4 hPa | 0 mm | - | 0 W/m² | - |
| 1777858217 | 13.89° C | 61% | 1005.3 hPa | 0 mm | - | 0 W/m² | - |
| 1777854038 | 13.89° C | 60% | 1005.3 hPa | 0 mm | - | 17 W/m² | - |
| 1777853418 | 13.89° C | 60% | 1005.3 hPa | 0 mm | - | 25 W/m² | - |
| 1777844438 | 12.22° C | 64% | 1007.5 hPa | 0 mm | - | 231 W/m² | - |
* Rain latest hour (hover to see other rain measurements)
** Current wind speed in m/s (hover to see current wind gust speed)